• Join FlightAware (Why Join?)
  • Login
  • US Flag 
08:23AM EDT


 

Airport Tracker/Info


-or-


 

Live Flight TrackerFlight Track Log ✈ UPS2844 ✈ 01-Nov-2013 ✈ KSDF - KSLC

Flight Track Log - Related Links

Times and Time Zones

All times are in EDT time to prevent confusion due to time zone crossing. See the UPS2844 flight status page for this flight to view local times or setup timezone preferences in your user account.

Time Position Orientation Groundspeed Altitude Reporting Facility
EDT Latitude Longitude Course Direction KTS MPH feet Rate Location/Type
04:29PM 38.1790 -85.7460 270° West 100 115  Level FlightAware
04:30PM 38.1400 -85.7310 163° South 187 215 2,500 2,700 Climbing FlightAware
04:30PM 38.1120 -85.7350 186° South 217 250 3,600 2,160 Climbing FlightAware
04:31PM 38.0750 -85.7490 197° South 248 285 5,000 2,280 Climbing FlightAware
04:31PM 38.0710 -85.7670 254° West 247 284 5,700 3,420 Climbing FlightAware
04:31PM 38.0760 -85.8170 277° West 243 280 7,700 3,060 Climbing FlightAware
04:32PM 38.0740 -85.8760 268° West 248 285 9,800 2,760 Climbing FlightAware
04:33PM 38.0740 -85.9030 270° West 248 285 10,700 1,980 Climbing FlightAware
04:33PM 38.0690 -85.9880 266° West 310 357 12,100 2,640 Climbing FlightAware
04:35PM 38.0590 -86.1220 265° West 341 392 16,000 3,240 Climbing FlightAware
04:35PM 38.0500 -86.2260 264° West 407 468 18,600 3,420 Climbing FlightAware
04:36PM 38.0450 -86.3160 266° West 362 417 21,100 3,060 Climbing FlightAware
04:37PM 38.0390 -86.4000 265° West 376 433 22,600 2,700 Climbing FlightAware
04:37PM 38.0310 -86.4980 264° West 362 417 24,800 2,460 Climbing FlightAware
04:38PM 38.0260 -86.5600 264° West 376 433 25,700 2,280 Climbing FlightAware
04:39PM 38.0190 -86.6420 264° West 375 432 27,400 2,220 Climbing FlightAware
04:39PM 38.0140 -86.7230 266° West 390 449 28,400 1,380 Climbing FlightAware
04:40PM 38.0070 -86.8180 265° West 408 470 29,200 1,620 Climbing FlightAware
04:40PM 38.0010 -86.8970 265° West 405 466 30,400 2,100 Climbing FlightAware
04:41PM 37.9940 -86.9810 264° West 401 461 31,600 1,740 Climbing FlightAware
04:42PM 37.9860 -87.0740 264° West 401 461 32,700 1,560 Climbing FlightAware
04:42PM 37.9780 -87.1700 264° West 401 461 33,800 1,440 Climbing FlightAware
04:43PM 37.9710 -87.2570 264° West 400 460 34,600 1,260 Climbing FlightAware
04:44PM 37.9580 -87.4100 264° West 397 457 36,000 600 Climbing FlightAware
04:45PM 37.9450 -87.5660 264° West 393 452 36,000  Level FlightAware
04:46PM 37.9340 -87.6980 264° West 393 452 36,000  Level FlightAware
04:47PM 37.9420 -87.7990 276° West 403 464 36,000  Level FlightAware
04:47PM 37.9690 -87.8770 294° West 405 466 36,000  Level FlightAware
04:48PM 37.9940 -87.9460 295° West 406 467 36,000  Level FlightAware
04:49PM 38.0250 -88.0330 294° West 405 466 36,000  Level FlightAware
04:49PM 38.0470 -88.0930 295° West 404 465 36,000  Level FlightAware
04:50PM 38.0780 -88.1800 294° West 403 464 36,000  Level FlightAware
04:50PM 38.0970 -88.2360 293° West 404 465 36,000  Level FlightAware
04:51PM 38.1280 -88.3230 294° West 404 465 36,000  Level FlightAware
04:51PM 38.1510 -88.3880 294° West 405 466 36,000  Level FlightAware
04:52PM 38.1790 -88.4690 294° West 406 467 36,000  Level FlightAware
04:53PM 38.2100 -88.5580 294° West 407 468 36,000  Level FlightAware
04:53PM 38.2410 -88.6460 294° West 408 470 36,000  Level FlightAware
04:54PM 38.2670 -88.7210 294° West 409 471 36,000  Level FlightAware
04:55PM 38.3050 -88.8310 294° West 411 473 36,000  Level FlightAware
04:56PM 38.3510 -88.9690 293° West 409 471 36,000  Level FlightAware
04:57PM 38.3840 -89.1030 287° West 407 468 36,000  Level FlightAware
04:57PM 38.4070 -89.2040 286° West 409 471 36,000  Level FlightAware
04:58PM 38.4350 -89.3300 286° West 410 472 36,000  Level FlightAware
04:59PM 38.4520 -89.4070 286° West 412 474 36,000  Level FlightAware
04:59PM 38.4700 -89.4840 287° West 412 474 36,000  Level FlightAware
05:00PM 38.4910 -89.5750 286° West 413 475 36,000  Level FlightAware
05:01PM 38.5100 -89.6620 286° West 413 475 36,000  Level FlightAware
05:02PM 38.5380 -89.7880 286° West 413 475 36,000  Level FlightAware
05:03PM 38.5730 -89.9460 286° West 413 475 36,000  Level FlightAware
05:03PM 38.5910 -90.0250 286° West 413 475 36,000  Level FlightAware
05:04PM 38.6240 -90.1730 286° West 411 473 36,000  Level FlightAware
05:05PM 38.6570 -90.3260 285° West 410 472 36,000  Level FlightAware
05:06PM 38.6720 -90.3980 285° West 409 471 36,000  Level FlightAware
05:07PM 38.7030 -90.5400 286° West 409 471 36,000  Level FlightAware
05:07PM 38.7180 -90.6100 285° West 409 471 36,000  Level FlightAware
05:08PM 38.7470 -90.7400 286° West 407 468 36,000  Level FlightAware
05:09PM 38.7640 -90.8220 285° West 407 468 36,000  Level FlightAware
05:10PM 38.7810 -90.9010 285° West 408 470 36,000  Level FlightAware
05:10PM 38.8080 -91.0270 285° West 409 471 36,000  Level FlightAware
05:11PM 38.8270 -91.1140 286° West 409 471 36,000  Level FlightAware
05:12PM 38.8430 -91.1910 285° West 410 472 36,000  Level FlightAware
05:12PM 38.8610 -91.2770 285° West 410 472 36,000  Level FlightAware
05:13PM 38.8770 -91.3530 285° West 411 473 36,000  Level FlightAware
05:13PM 38.8930 -91.4280 285° West 410 472 36,000  Level FlightAware
05:14PM 38.9110 -91.5130 285° West 410 472 36,000  Level FlightAware
05:15PM 38.9310 -91.6090 285° West 410 472 36,000  Level FlightAware
05:15PM 38.9450 -91.6800 284° West 410 472 36,000  Level FlightAware
05:16PM 38.9760 -91.8260 285° West 411 473 36,000  Level FlightAware
05:17PM 38.9940 -91.9140 285° West 412 474 36,000  Level FlightAware
05:17PM 39.0120 -92.0010 285° West 412 474 36,000  Level FlightAware
05:18PM 39.0310 -92.0980 284° West 411 473 36,000  Level FlightAware
05:19PM 39.0470 -92.1740 285° West 411 473 36,000  Level FlightAware
05:19PM 39.0640 -92.2590 284° West 411 473 36,000  Level FlightAware
05:20PM 39.0820 -92.3510 284° West 410 472 36,000  Level FlightAware
05:20PM 39.0980 -92.4270 285° West 411 473 36,000  Level FlightAware
05:21PM 39.1250 -92.5640 284° West 411 473 36,000  Level FlightAware
05:22PM 39.1400 -92.6380 285° West 412 474 36,000  Level FlightAware
05:22PM 39.1570 -92.7260 284° West 413 475 36,000  Level FlightAware
05:24PM 39.1870 -92.8790 284° West 414 476 36,000  Level FlightAware
05:25PM 39.2180 -93.0340 285° West 415 478 36,000  Level FlightAware
05:26PM 39.2430 -93.1660 284° West 414 476 36,000  Level FlightAware
05:27PM 39.2720 -93.3200 284° West 414 476 36,000  Level FlightAware
05:27PM 39.2930 -93.4270 284° West 413 475 36,000  Level FlightAware
05:28PM 39.3090 -93.5140 283° West 414 476 36,000  Level FlightAware
05:29PM 39.3300 -93.6240 284° West 413 475 36,000  Level FlightAware
05:30PM 39.3580 -93.7750 284° West 413 475 36,000  Level FlightAware
05:31PM 39.3790 -93.8880 284° West 413 475 36,000  Level FlightAware
05:31PM 39.3940 -93.9670 284° West 414 476 36,000  Level FlightAware
05:32PM 39.4090 -94.0470 284° West 415 478 36,000  Level FlightAware
05:32PM 39.4280 -94.1530 283° West 414 476 36,000  Level FlightAware
05:33PM 39.4520 -94.2850 283° West 412 474 36,000  Level FlightAware
05:34PM 39.4620 -94.3380 284° West 412 474 36,000  Level FlightAware
05:35PM 39.4930 -94.5080 283° West 411 473 36,000  Level FlightAware
05:36PM 39.5110 -94.6110 283° West 410 472 36,000  Level FlightAware
05:37PM 39.5380 -94.7590 283° West 410 472 36,000  Level FlightAware
05:38PM 39.5630 -94.9010 283° West 411 473 36,000  Level FlightAware
05:38PM 39.5760 -94.9750 283° West 411 473 36,000  Level FlightAware
05:39PM 39.5880 -95.0450 283° West 411 473 36,000  Level FlightAware
05:39PM 39.5990 -95.1070 283° West 411 473 36,000  Level FlightAware
05:40PM 39.6170 -95.2080 283° West 411 473 36,000  Level FlightAware
05:40PM 39.6280 -95.2750 282° West 410 472 36,000  Level FlightAware
05:41PM 39.6420 -95.3570 283° West 410 472 36,000  Level FlightAware
05:41PM 39.6590 -95.4580 282° West 409 471 36,000  Level FlightAware
05:42PM 39.6720 -95.5350 282° West 409 471 36,000  Level FlightAware
05:42PM 39.6840 -95.6020 283° West 408 470 36,000  Level FlightAware
05:43PM 39.7040 -95.7220 282° West 409 471 36,000  Level FlightAware
05:44PM 39.7310 -95.8830 282° West 412 474 36,000  Level FlightAware
05:45PM 39.7560 -96.0280 283° West 415 478 36,000  Level FlightAware
05:46PM 39.7640 -96.0840 281° West 415 478 36,000  Level FlightAware
05:47PM 39.7930 -96.2600 282° West 417 480 36,000  Level FlightAware
05:48PM 39.8080 -96.3470 283° West 419 482 36,000  Level FlightAware
05:48PM 39.8090 -96.3560 278° West 419 482 36,000 1,020 Level FlightAware
05:49PM 39.8340 -96.5080 282° West 411 473 37,200 840 Climbing FlightAware
05:49PM 39.8380 -96.5350 281° West 411 473 37,400 540 Climbing FlightAware
05:50PM 39.8620 -96.6870 282° West 413 475 38,000 420 Climbing FlightAware
05:51PM 39.8850 -96.8300 282° West 409 471 38,000  Level FlightAware
05:51PM 39.8990 -96.9160 282° West 405 466 38,000  Level FlightAware
05:52PM 39.9110 -96.9970 281° West 403 464 38,000  Level FlightAware
05:53PM 39.9280 -97.1020 282° West 402 463 38,000  Level FlightAware
05:53PM 39.9390 -97.1750 281° West 399 459 38,000  Level FlightAware
05:54PM 39.9600 -97.3140 281° West 398 458 38,000  Level FlightAware
05:55PM 39.9720 -97.3870 282° West 398 458 38,000  Level FlightAware
05:55PM 39.9738 -97.4463 272° West 398 458 38,000  Level FlightAware ADS-B
05:56PM 39.9920 -97.5190 288° West 398 458 38,000  Level FlightAware
05:57PM 40.0110 -97.6460 281° West 398 458 38,000  Level FlightAware
05:57PM 40.0210 -97.7140 281° West 401 461 38,000  Level FlightAware
05:58PM 40.0400 -97.8380 281° West 403 464 38,000  Level FlightAware
05:59PM 40.0500 -97.9130 280° West 404 465 38,000  Level FlightAware
05:59PM 40.0643 -98.0038 282° West 407 468 38,000  Level FlightAware ADS-B
06:00PM 40.0920 -98.1960 281° West 410 472 38,000  Level FlightAware
06:01PM 40.0980 -98.2390 280° West 409 471 38,000  Level FlightAware
06:02PM 40.1160 -98.3720 280° West 409 471 38,000  Level FlightAware
06:02PM 40.1260 -98.4460 280° West 409 471 38,000  Level FlightAware
06:03PM 40.1400 -98.5480 280° West 409 471 38,000  Level FlightAware
06:04PM 40.1500 -98.6250 280° West 409 471 38,000  Level FlightAware
06:04PM 40.1580 -98.6790 281° West 409 471 38,000  Level FlightAware
06:05PM 40.1670 -98.7490 280° West 409 471 38,000  Level FlightAware
06:05PM 40.1770 -98.8240 280° West 409 471 38,000  Level FlightAware
06:06PM 40.1840 -98.8750 280° West 409 471 38,000  Level FlightAware
06:07PM 40.1950 -98.9540 280° West 409 471 38,000  Level FlightAware
06:07PM 40.2080 -99.0560 280° West 409 471 38,000  Level FlightAware
06:08PM 40.2250 -99.1800 280° West 409 471 38,000  Level FlightAware
06:09PM 40.2320 -99.2300 280° West 409 471 38,000  Level FlightAware
06:10PM 40.2490 -99.3570 280° West 409 471 38,000  Level FlightAware
06:11PM 40.2620 -99.4520 280° West 409 471 38,000  Level FlightAware
06:11PM 40.3003 -99.7067 280° West 402 463 38,000  Level Minneapolis Center
06:12PM 40.3117 -99.7928 280° West 401 461 38,000  Level Denver Center
06:13PM 40.3336 -99.9597 280° West 398 458 38,000  Level Denver Center
06:14PM 40.3511 -100.0956 280° West 397 457 38,000  Level Denver Center
06:15PM 40.3711 -100.2542 279° West 395 455 38,000  Level Denver Center
06:16PM 40.3883 -100.3889 280° West 391 450 38,000  Level Denver Center
06:17PM 40.4083 -100.5492 279° West 395 455 38,000  Level Denver Center
06:18PM 40.4250 -100.6858 279° West 394 453 38,000  Level Denver Center
06:19PM 40.4414 -100.8239 279° West 397 457 38,000  Level Denver Center
06:20PM 40.4508 -100.9856 274° West 396 456 38,000  Level Denver Center
06:26PM 40.4270 -101.8790 274° West 406 467 38,000  Level FlightAware
06:27PM 40.4230 -101.9900 267° West 406 467 38,000  Level FlightAware
06:28PM 40.4180 -102.1200 267° West 407 468 38,000  Level FlightAware
06:28PM 40.4150 -102.2040 267° West 410 472 38,000  Level FlightAware
06:29PM 40.4110 -102.3260 268° West 411 473 38,000  Level FlightAware
06:30PM 40.4060 -102.4680 267° West 412 474 38,000  Level FlightAware
06:30PM 40.4030 -102.5460 267° West 413 475 38,000  Level FlightAware
06:31PM 40.3970 -102.6780 267° West 414 476 38,000  Level FlightAware
06:32PM 40.3940 -102.7690 268° West 417 480 38,000  Level FlightAware
06:33PM 40.3870 -102.9260 267° West 420 483 38,000  Level FlightAware
06:34PM 40.3810 -103.0660 267° West 420 483 38,000  Level FlightAware
06:34PM 40.3780 -103.1500 267° West 422 486 38,000  Level FlightAware
06:35PM 40.3720 -103.2700 266° West 424 488 38,000  Level FlightAware
06:36PM 40.3660 -103.4090 267° West 424 488 38,000  Level FlightAware
06:37PM 40.3630 -103.5460 268° West 424 488 38,000  Level FlightAware
06:38PM 40.3570 -103.6760 267° West 425 489 38,000  Level FlightAware
06:38PM 40.3555 -103.7061 266° West 426 490 38,000  Level FlightAware ADS-B (KANK)
06:39PM 40.3507 -103.8028 266° West 425 489 38,000  Level FlightAware ADS-B (KANK)
06:39PM 40.3457 -103.9033 266° West 424 488 38,000  Level FlightAware ADS-B (KANK)
06:40PM 40.3412 -103.9891 266° West 424 488 38,000  Level FlightAware ADS-B (KANK)
06:40PM 40.3364 -104.0789 266° West 420 483 38,000  Level FlightAware ADS-B (KANK)
06:41PM 40.3325 -104.1546 266° West 419 482 38,000  Level FlightAware ADS-B (KANK)
06:42PM 40.3270 -104.2620 266° West 417 480 38,000  Level FlightAware
06:42PM 40.3220 -104.3430 265° West 417 480 38,000  Level FlightAware
06:42PM 40.3220 -104.3466 270° West 416 479 38,000  Level FlightAware ADS-B (KANK)
06:43PM 40.3165 -104.4445 266° West 416 479 38,000  Level FlightAware ADS-B (KANK)
06:44PM 40.3110 -104.5419 266° West 416 479 38,000  Level FlightAware ADS-B (KANK)
06:44PM 40.3069 -104.6113 266° West 416 479 38,000  Level FlightAware ADS-B (KANK)
06:45PM 40.3025 -104.6868 266° West 416 479 38,000  Level FlightAware ADS-B (KANK)
06:45PM 40.2971 -104.7783 266° West 416 479 38,000  Level FlightAware ADS-B (KANK)
06:46PM 40.2918 -104.8665 266° West 416 479 38,000  Level FlightAware ADS-B (KANK)
06:46PM 40.2872 -104.9439 266° West 416 479 38,000  Level FlightAware ADS-B (KANK)
06:47PM 40.2824 -105.0209 265° West 416 479 38,000  Level FlightAware ADS-B (KANK)
06:47PM 40.2774 -105.1010 265° West 421 484 38,000  Level FlightAware ADS-B (KANK)
06:48PM 40.2680 -105.2476 265° West 422 486 38,000  Level FlightAware ADS-B (KANK)
06:49PM 40.2626 -105.3322 265° West 422 486 38,000  Level FlightAware ADS-B (KANK)
06:49PM 40.2571 -105.4152 265° West 420 483 38,000  Level FlightAware ADS-B (KANK)
06:50PM 40.2515 -105.5006 265° West 422 486 38,000  Level FlightAware ADS-B (KANK)
06:51PM 40.2430 -105.6260 265° West 413 475 38,000  Level FlightAware
06:52PM 40.2340 -105.7630 265° West 409 471 38,000  Level FlightAware
06:52PM 40.2345 -105.7509 87° East 411 473 38,000  Level FlightAware ADS-B (KANK)
06:53PM 40.2200 -105.9520 265° West 415 478 38,000  Level FlightAware
06:53PM 40.2198 -105.9609 269° West 417 480 38,000  Level FlightAware ADS-B (KANK)
06:54PM 40.2110 -106.0760 264° West 419 482 38,000  Level FlightAware
06:54PM 40.2101 -106.0958 267° West 420 483 38,000  Level FlightAware ADS-B (KANK)
06:55PM 40.2049 -106.1663 265° West 419 482 38,000  Level FlightAware ADS-B (KANK)
06:55PM 40.1994 -106.2418 265° West 418 481 38,000  Level FlightAware ADS-B (KANK)
06:56PM 40.1890 -106.3842 265° West 418 481 38,000  Level FlightAware ADS-B (KANK)
06:56PM 40.1835 -106.4563 264° West 418 481 38,000  Level FlightAware ADS-B (KANK)
06:57PM 40.1749 -106.5693 264° West 419 482 38,000  Level FlightAware ADS-B (KANK)
06:58PM 40.1672 -106.6687 264° West 417 480 38,000  Level FlightAware ADS-B (KANK)
06:58PM 40.1587 -106.7775 264° West 417 480 38,000  Level FlightAware ADS-B (KANK)
06:59PM 40.1502 -106.8865 264° West 420 483 38,000  Level FlightAware ADS-B (KANK)
07:00PM 40.1426 -106.9809 264° West 422 486 38,000  Level FlightAware ADS-B (KMTJ)
07:00PM 40.1364 -107.0577 264° West 421 484 38,000  Level FlightAware ADS-B (KMTJ)
07:01PM 40.1297 -107.1389 264° West 420 483 38,000  Level FlightAware ADS-B (KMTJ)
07:01PM 40.1220 -107.2334 264° West 419 482 38,000  Level FlightAware ADS-B (KMTJ)
07:02PM 40.1159 -107.3087 264° West 420 483 38,000  Level FlightAware ADS-B (KMTJ)
07:03PM 40.1076 -107.4105 264° West 422 486 38,000  Level FlightAware ADS-B (KMTJ)
07:03PM 40.0992 -107.5108 264° West 421 484 38,000  Level FlightAware ADS-B (KMTJ)
07:04PM 40.0906 -107.6106 264° West 421 484 38,000  Level FlightAware ADS-B (KMTJ)
07:04PM 40.0839 -107.6883 264° West 422 486 38,000  Level FlightAware ADS-B (KMTJ)
07:05PM 40.0773 -107.7669 264° West 423 487 38,000  Level FlightAware ADS-B (KMTJ)
07:05PM 40.0707 -107.8419 264° West 422 486 38,000  Level FlightAware ADS-B (KMTJ)
07:06PM 40.0654 -107.9299 266° West 417 480 38,000  Level FlightAware ADS-B (KMTJ)
07:07PM 40.0673 -108.0092 272° West 415 478 38,000  Level FlightAware ADS-B (KMTJ)
07:07PM 40.0706 -108.0831 273° West 414 476 38,000  Level FlightAware ADS-B (KMTJ)
07:08PM 40.0742 -108.1634 273° West 416 479 38,000  Level FlightAware ADS-B (KMTJ)
07:08PM 40.0776 -108.2395 273° West 415 478 38,000  Level FlightAware ADS-B (KMTJ)
07:09PM 40.0811 -108.3238 273° West 415 478 38,000  Level FlightAware ADS-B (KMTJ)
07:09PM 40.0841 -108.3982 273° West 415 478 38,000  Level FlightAware ADS-B (KMTJ)
07:10PM 40.0872 -108.4737 273° West 416 479 38,000  Level FlightAware ADS-B (KMTJ)
07:10PM 40.0902 -108.5488 273° West 417 480 38,000  Level FlightAware ADS-B (KMTJ)
07:11PM 40.0931 -108.6214 273° West 417 480 38,000  Level FlightAware ADS-B (KMTJ)
07:11PM 40.0960 -108.6998 273° West 417 480 38,000  Level FlightAware ADS-B (KMTJ)
07:12PM 40.0987 -108.7714 273° West 417 480 38,000  Level FlightAware ADS-B (KMTJ)
07:12PM 40.1020 -108.8548 273° West 417 480 38,000  Level FlightAware ADS-B (KMTJ)
07:13PM 40.1100 -108.9326 278° West 416 479 38,000  Level FlightAware ADS-B (KMTJ)
07:13PM 40.1129 -109.0100 273° West 415 478 38,000  Level FlightAware ADS-B (KMTJ)
07:14PM 40.1108 -109.0891 268° West 414 476 38,000  Level FlightAware ADS-B (KMTJ)
07:14PM 40.1135 -109.1709 273° West 415 478 38,000  Level FlightAware ADS-B (KMTJ)
07:15PM 40.1186 -109.3215 273° West 416 479 38,000  Level FlightAware ADS-B (KMTJ)
07:16PM 40.1214 -109.4058 272° West 415 478 38,000  Level FlightAware ADS-B (KMTJ)
07:17PM 40.1250 -109.5142 273° West 414 476 38,000 -120 Level FlightAware ADS-B (KMTJ)
07:17PM 40.1279 -109.6072 272° West 412 474 37,900 -480 Descending FlightAware ADS-B (KMTJ)
07:18PM 40.1305 -109.6889 272° West 409 471 37,500 -1,080 Descending FlightAware ADS-B (KMTJ)
07:18PM 40.1331 -109.7643 273° West 409 471 36,800 -1,380 Descending FlightAware ADS-B (KMTJ)
07:19PM 40.1355 -109.8461 272° West 411 473 36,100 -1,320 Descending FlightAware ADS-B (KMTJ)
07:19PM 40.1384 -109.9501 272° West 416 479 35,200 -1,380 Descending FlightAware ADS-B (KMTJ)
07:20PM 40.1410 -110.0369 272° West 420 483 34,400 -1,260 Descending FlightAware ADS-B (KMTJ)
07:21PM 40.1437 -110.1324 272° West 421 484 33,700 -1,020 Descending FlightAware ADS-B (KMTJ)
07:21PM 40.1432 -110.2330 270° West 422 486 33,100 -960 Descending FlightAware ADS-B (KMTJ)
07:22PM 40.1418 -110.3148 269° West 419 482 32,600 -960 Descending FlightAware ADS-B (KMTJ)
07:22PM 40.1409 -110.3936 269° West 418 481 32,100 -540 Descending FlightAware ADS-B (KMTJ)
07:23PM 40.1390 -110.5230 269° West 418 481 31,800 -1,320 Descending FlightAware
07:24PM 40.1391 -110.6284 270° West 411 473 30,100 -1,620 Descending FlightAware ADS-B (KMTJ)
07:25PM 40.1380 -110.7225 269° West 424 488 30,000 -120 Descending FlightAware ADS-B (KMTJ)
07:25PM 40.1366 -110.8413 269° West 432 497 30,000  Level FlightAware ADS-B (KMTJ)
07:26PM 40.1356 -110.9236 269° West 432 497 30,000 -1,080 Level FlightAware ADS-B (KMTJ)
07:26PM 40.1346 -110.9930 269° West 417 480 29,000 -3,180 Descending FlightAware ADS-B
07:27PM 40.1383 -111.0908 273° West 409 471 26,600 -3,780 Descending FlightAware ADS-B
07:27PM 40.1370 -111.1620 269° West 402 463 24,700 -3,780 Descending FlightAware
07:28PM 40.1367 -111.1970 269° West 391 450 23,900 -3,600 Descending FlightAware ADS-B
07:28PM 40.1361 -111.2414 269° West 377 434 22,800 -3,840 Descending FlightAware ADS-B
07:28PM 40.1357 -111.2660 269° West 372 428 22,000 1,680 Descending FlightAware ADS-B
07:29PM 40.1320 -111.3520 267° West 399 459 24,500 -4,980 Climbing FlightAware
07:29PM 40.1334 -111.3849 273° West 392 451 16,300 -6,720 Descending FlightAware ADS-B
07:30PM 40.1314 -111.5002 269° West 347 399 15,700 -540 Descending FlightAware ADS-B
07:31PM 40.1428 -111.5809 281° West 332 382 15,700  Level FlightAware ADS-B
07:31PM 40.1553 -111.6180 294° West 332 382 15,700  Level FlightAware ADS-B
07:31PM 40.1643 -111.6410 297° West 328 377 15,700  Level FlightAware ADS-B
07:31PM 40.1751 -111.6690 297° West 319 367 15,700 -240 Level FlightAware ADS-B
07:32PM 40.1842 -111.6860 305° West 315 362 15,600 -1,140 Descending FlightAware ADS-B
07:32PM 40.1940 -111.7023 308° West 312 359 15,300 -1,500 Descending FlightAware ADS-B
07:32PM 40.2034 -111.7150 314° West 311 358 15,100 -1,740 Descending FlightAware ADS-B
07:32PM 40.2312 -111.7522 314° West 308 354 14,200 -1,980 Descending FlightAware ADS-B
07:32PM 40.2351 -111.7580 311° West 308 354 14,100 -1,860 Descending FlightAware ADS-B
07:33PM 40.2552 -111.7840 315° West 306 352 13,500 -1,800 Descending FlightAware ADS-B
07:33PM 40.2608 -111.7921 312° West 304 350 13,300 -1,860 Descending FlightAware ADS-B
07:33PM 40.2809 -111.8180 315° West 303 349 12,700 -2,220 Descending FlightAware ADS-B
07:33PM 40.2922 -111.8316 317° Northwest 301 346 12,200 -2,820 Descending FlightAware ADS-B
07:33PM 40.2969 -111.8362 323° Northwest 294 338 12,000 -2,100 Descending FlightAware ADS-B (KBTF)
07:34PM 40.3144 -111.8540 322° Northwest 300 345 11,500 -1,620 Descending FlightAware ADS-B
07:34PM 40.3376 -111.8783 321° Northwest 287 330 11,000 -1,320 Descending FlightAware ADS-B (KBTF)
07:34PM 40.3477 -111.8890 321° Northwest 290 334 10,800 -540 Descending FlightAware ADS-B
07:35PM 40.3751 -111.9162 323° Northwest 268 308 10,700 -240 Descending FlightAware ADS-B
07:35PM 40.3781 -111.9190 324° Northwest 268 308 10,700 -1,020 Level FlightAware ADS-B
07:35PM 40.3814 -111.9210 335° Northwest 266 306 10,600 -600 Descending FlightAware ADS-B
07:35PM 40.3896 -111.9257 337° Northwest 262 302 10,600 300 Level FlightAware ADS-B (KBTF)
07:35PM 40.4017 -111.9290 348° North 257 296 10,700 840 Climbing FlightAware ADS-B
07:35PM 40.4140 -111.9315 351° North 262 302 10,900 300 Climbing FlightAware ADS-B (KBTF)
07:35PM 40.4233 -111.9320 357° North 268 308 10,800 -960 Descending FlightAware ADS-B
07:36PM 40.4610 -111.9360 355° North 272 313 10,300 -1,080 Descending FlightAware ADS-B
07:36PM 40.4659 -111.9365 355° North 273 314 10,200 -2,160 Descending FlightAware ADS-B (KBTF)
07:36PM 40.4835 -111.9390 354° North 270 311 9,700 -2,040 Descending FlightAware ADS-B
07:36PM 40.4912 -111.9400 354° North 259 298 9,500 -1,500 Descending FlightAware ADS-B (KBTF)
07:36PM 40.5021 -111.9410 356° North 259 298 9,300 -1,200 Descending FlightAware ADS-B
07:37PM 40.5132 -111.9430 352° North 251 289 9,100 -1,440 Descending FlightAware ADS-B
07:37PM 40.5171 -111.9430 360° North 249 287 9,000 -1,680 Descending FlightAware ADS-B
07:37PM 40.5363 -111.9460 353° North 234 269 8,600 -1,320 Descending FlightAware ADS-B
07:37PM 40.5529 -111.9480 355° North 217 250 8,300 -1,140 Descending FlightAware ADS-B
07:38PM 40.5728 -111.9500 356° North 204 235 7,900 -1,200 Descending FlightAware ADS-B
07:38PM 40.5762 -111.9501 358° North 203 234 7,800 -1,020 Descending FlightAware ADS-B
07:38PM 40.5895 -111.9520 354° North 200 230 7,600 -1,020 Descending FlightAware ADS-B
07:38PM 40.6041 -111.9534 356° North 198 228 7,300 -1,260 Descending FlightAware ADS-B
07:38PM 40.6117 -111.9540 357° North 198 228 7,100 -1,080 Descending FlightAware ADS-B
07:39PM 40.6307 -111.9560 355° North 196 226 6,800 -1,080 Descending FlightAware ADS-B
07:39PM 40.6529 -111.9590 354° North 181 208 6,300 -1,020 Descending FlightAware ADS-B
07:40PM 40.6754 -111.9620 354° North 171 197 5,900 -900 Descending FlightAware ADS-B
07:40PM 40.7002 -111.9640 357° North 156 180 5,400 -840 Descending FlightAware ADS-B
07:40PM 40.7110 -111.9660 352° North 146 168 5,200 -780 Descending FlightAware ADS-B
07:41PM 40.7312 -111.9680 356° North 144 166 4,800 -720 Descending FlightAware ADS-B
07:41PM 40.7444 -111.9700 353° North 142 163 4,600 -840 Descending FlightAware ADS-B
07:41PM 40.7515 -111.9710 354° North 146 168 4,400 -840 Descending FlightAware ADS-B
07:42PM 40.7696 -111.9730 355° North 143 165 4,100 -720 Descending FlightAware ADS-B
07:42PM 40.7815 -111.9740 356° North 140 161 -13,680 Descending FlightAware ADS-B
07:42PM 40.7877 -111.9746 356° North 100 115  Level FlightAware ADS-B (KBTF)